createdAt,value
2019-06-20T00:00:05.316Z,19.81
2019-06-20T00:01:05.477Z,19.85
2019-06-20T00:02:05.252Z,19.86
2019-06-20T00:03:05.164Z,19.86
2019-06-20T00:04:05.254Z,19.90
2019-06-20T00:05:05.291Z,19.92
2019-06-20T00:06:05.284Z,19.90
2019-06-20T00:07:05.225Z,19.98
2019-06-20T00:08:05.419Z,19.93
2019-06-20T00:09:05.304Z,19.93
2019-06-20T00:10:05.326Z,19.98
2019-06-20T00:11:05.337Z,19.96
2019-06-20T00:12:05.439Z,19.85
2019-06-20T00:13:05.748Z,19.82
2019-06-20T00:14:05.276Z,19.75
2019-06-20T00:15:05.220Z,19.76
2019-06-20T00:16:05.287Z,19.78
2019-06-20T00:17:05.306Z,19.77
2019-06-20T00:18:05.264Z,19.80
2019-06-20T00:19:05.261Z,19.85
2019-06-20T00:20:05.209Z,19.90
2019-06-20T00:21:05.425Z,20.01
2019-06-20T00:22:05.364Z,20.00
2019-06-20T00:23:05.506Z,19.97
2019-06-20T00:24:05.200Z,19.93
2019-06-20T00:25:05.407Z,19.91
2019-06-20T00:26:05.346Z,19.96
2019-06-20T00:27:05.366Z,19.95
2019-06-20T00:28:05.372Z,19.97
2019-06-20T00:29:05.358Z,20.05
2019-06-20T00:30:05.327Z,20.11
2019-06-20T00:31:05.347Z,20.02
2019-06-20T00:32:05.292Z,20.02
2019-06-20T00:33:05.257Z,19.98
2019-06-20T00:34:05.489Z,19.97
2019-06-20T00:35:05.326Z,20.01
2019-06-20T00:36:05.327Z,19.98
2019-06-20T00:37:05.356Z,19.91
2019-06-20T00:38:05.315Z,19.80
2019-06-20T00:39:05.430Z,19.74
2019-06-20T00:40:05.354Z,19.81
2019-06-20T00:41:05.423Z,19.79
2019-06-20T00:42:05.399Z,19.77
2019-06-20T00:43:16.816Z,19.72
2019-06-20T00:44:05.249Z,19.73
2019-06-20T00:45:05.533Z,19.72
2019-06-20T00:46:05.298Z,19.74
2019-06-20T00:47:05.341Z,19.73
2019-06-20T00:48:05.388Z,19.71
2019-06-20T00:49:05.338Z,19.72
2019-06-20T00:50:05.342Z,19.69
2019-06-20T00:51:05.336Z,19.67
2019-06-20T00:52:05.479Z,19.64
2019-06-20T00:53:05.473Z,19.64
2019-06-20T00:54:05.242Z,19.66
2019-06-20T00:55:05.377Z,19.63
2019-06-20T00:56:05.356Z,19.64
2019-06-20T00:57:05.468Z,19.62
2019-06-20T00:58:05.266Z,19.59
2019-06-20T00:59:05.352Z,19.60
2019-06-20T01:00:05.277Z,19.55
2019-06-20T01:01:05.272Z,19.55
2019-06-20T01:02:05.340Z,19.52
2019-06-20T01:03:05.489Z,19.51
2019-06-20T01:04:05.225Z,19.53
2019-06-20T01:05:05.509Z,19.55
2019-06-20T01:06:05.516Z,19.49
2019-06-20T01:07:05.452Z,19.53
2019-06-20T01:08:05.318Z,19.54
2019-06-20T01:09:05.382Z,19.61
2019-06-20T01:10:05.340Z,19.60
2019-06-20T01:11:05.260Z,19.67
2019-06-20T01:12:05.406Z,19.71
2019-06-20T01:13:09.586Z,19.79
2019-06-20T01:14:05.398Z,19.79
2019-06-20T01:15:05.285Z,19.75
2019-06-20T01:16:05.290Z,19.65
2019-06-20T01:17:05.461Z,19.72
2019-06-20T01:18:05.297Z,19.74
2019-06-20T01:19:05.334Z,19.73
2019-06-20T01:20:05.189Z,19.67
2019-06-20T01:21:05.327Z,19.60
2019-06-20T01:22:05.457Z,19.56
2019-06-20T01:23:05.553Z,19.39
2019-06-20T01:24:05.369Z,19.33
2019-06-20T01:25:05.371Z,19.25
2019-06-20T01:26:05.351Z,19.23
2019-06-20T01:27:05.412Z,19.22
2019-06-20T01:28:05.520Z,19.22
2019-06-20T01:29:05.430Z,19.21
2019-06-20T01:30:05.398Z,19.17
2019-06-20T01:31:05.503Z,19.22
2019-06-20T01:32:05.353Z,19.24
2019-06-20T01:33:05.349Z,19.20
2019-06-20T01:34:05.237Z,19.13
2019-06-20T01:35:05.352Z,19.16
2019-06-20T01:36:05.353Z,19.18
2019-06-20T01:37:05.427Z,19.17
2019-06-20T01:38:05.483Z,19.35
2019-06-20T01:39:05.466Z,19.48
2019-06-20T01:40:05.368Z,19.37
2019-06-20T01:41:06.366Z,19.55
2019-06-20T01:42:05.467Z,19.44
2019-06-20T01:43:05.417Z,19.36
2019-06-20T01:44:05.314Z,19.63
2019-06-20T01:45:05.516Z,19.64
2019-06-20T01:46:05.428Z,19.72
2019-06-20T01:47:05.560Z,19.63
2019-06-20T01:48:05.623Z,19.48
2019-06-20T01:49:05.349Z,19.46
2019-06-20T01:50:05.543Z,19.40
2019-06-20T01:51:05.491Z,19.69
2019-06-20T01:52:05.427Z,19.52
2019-06-20T01:53:05.380Z,19.37
2019-06-20T01:54:05.466Z,19.24
2019-06-20T01:55:05.434Z,19.33
2019-06-20T01:56:05.387Z,19.40
2019-06-20T01:57:05.439Z,19.39
2019-06-20T01:58:05.488Z,19.44
2019-06-20T01:59:05.410Z,19.28
2019-06-20T02:00:05.476Z,19.36
2019-06-20T02:01:06.684Z,19.45
2019-06-20T02:02:05.520Z,19.53
2019-06-20T02:03:05.461Z,19.50
2019-06-20T02:04:05.561Z,19.60
2019-06-20T02:05:05.593Z,19.59
2019-06-20T02:06:05.505Z,19.45
2019-06-20T02:07:05.574Z,19.50
2019-06-20T02:08:05.618Z,19.60
2019-06-20T02:09:05.690Z,19.56
2019-06-20T02:10:05.633Z,19.51
2019-06-20T02:11:05.667Z,19.69
2019-06-20T02:12:05.808Z,19.79
2019-06-20T02:13:05.653Z,19.77
2019-06-20T02:14:07.554Z,19.70
2019-06-20T02:15:05.654Z,19.58
2019-06-20T02:16:05.697Z,19.40
2019-06-20T02:17:05.563Z,19.36
2019-06-20T02:18:05.712Z,19.24
2019-06-20T02:19:05.603Z,19.40
2019-06-20T02:20:05.626Z,19.44
2019-06-20T02:21:05.631Z,19.31
2019-06-20T02:22:05.623Z,19.33
2019-06-20T02:23:05.743Z,19.25
2019-06-20T02:24:05.609Z,19.20
2019-06-20T02:25:05.648Z,19.26
2019-06-20T02:26:05.661Z,19.25
2019-06-20T02:27:05.687Z,19.38
2019-06-20T02:28:05.652Z,19.20
2019-06-20T02:29:05.734Z,19.22
2019-06-20T02:30:05.648Z,19.28
2019-06-20T02:31:05.713Z,19.50
2019-06-20T02:32:05.691Z,19.36
2019-06-20T02:33:05.607Z,19.18
2019-06-20T02:34:05.934Z,19.34
2019-06-20T02:35:05.600Z,19.26
2019-06-20T02:36:05.611Z,19.28
2019-06-20T02:37:05.617Z,19.36
2019-06-20T02:38:05.683Z,19.61
2019-06-20T02:39:05.622Z,19.39
2019-06-20T02:40:05.730Z,19.34
2019-06-20T02:41:05.665Z,19.22
2019-06-20T02:42:05.678Z,19.18
2019-06-20T02:43:05.715Z,19.17
2019-06-20T02:44:05.688Z,19.24
2019-06-20T02:45:05.773Z,19.25
2019-06-20T02:46:05.696Z,19.35
2019-06-20T02:47:05.696Z,19.28
2019-06-20T02:48:05.727Z,19.38
2019-06-20T02:49:05.681Z,19.24
2019-06-20T02:50:05.949Z,19.21
2019-06-20T02:51:05.640Z,19.32
2019-06-20T02:52:05.705Z,19.47
2019-06-20T02:53:05.632Z,19.19
2019-06-20T02:54:05.636Z,19.17
2019-06-20T02:55:05.647Z,19.26
2019-06-20T02:56:05.867Z,19.14
2019-06-20T02:57:05.888Z,19.08
2019-06-20T02:58:05.665Z,19.22
2019-06-20T02:59:05.877Z,19.23
2019-06-20T03:00:05.990Z,19.17
2019-06-20T03:01:10.756Z,19.09
2019-06-20T03:02:05.671Z,19.07
2019-06-20T03:03:06.043Z,19.04
2019-06-20T03:04:05.750Z,19.06
2019-06-20T03:05:05.906Z,19.06
2019-06-20T03:06:06.118Z,19.00
2019-06-20T03:07:06.066Z,18.96
2019-06-20T03:08:05.637Z,19.02
2019-06-20T03:09:05.683Z,18.97
2019-06-20T03:10:05.644Z,18.92
2019-06-20T03:11:05.663Z,18.90
2019-06-20T03:12:05.667Z,19.08
2019-06-20T03:13:05.734Z,19.01
2019-06-20T03:14:05.720Z,18.96
2019-06-20T03:15:05.700Z,18.99
2019-06-20T03:16:06.134Z,18.89
2019-06-20T03:17:05.822Z,18.90
2019-06-20T03:18:05.749Z,19.02
2019-06-20T03:19:05.742Z,18.98
2019-06-20T03:20:05.733Z,18.93
2019-06-20T03:21:05.659Z,19.05
2019-06-20T03:22:05.727Z,19.22
2019-06-20T03:23:05.797Z,19.13
2019-06-20T03:24:05.656Z,18.96
2019-06-20T03:25:05.888Z,18.96
2019-06-20T03:26:05.666Z,18.88
2019-06-20T03:27:05.672Z,18.88
2019-06-20T03:28:05.789Z,18.80
2019-06-20T03:29:05.779Z,18.87
2019-06-20T03:30:05.779Z,18.93
2019-06-20T03:31:05.727Z,18.84
2019-06-20T03:32:05.736Z,18.75
2019-06-20T03:33:06.051Z,18.74
2019-06-20T03:34:05.762Z,18.63
2019-06-20T03:35:05.959Z,18.69
2019-06-20T03:36:05.764Z,18.66
2019-06-20T03:37:05.759Z,18.67
2019-06-20T03:38:05.729Z,18.70
2019-06-20T03:39:06.092Z,18.59
2019-06-20T03:40:05.674Z,18.54
2019-06-20T03:41:05.692Z,18.47
2019-06-20T03:42:05.717Z,18.57
2019-06-20T03:43:05.746Z,18.65
2019-06-20T03:44:05.738Z,18.64
2019-06-20T03:45:05.862Z,18.99
2019-06-20T03:46:05.729Z,19.10
2019-06-20T03:47:05.806Z,19.11
2019-06-20T03:48:05.751Z,18.81
2019-06-20T03:49:05.765Z,18.84
2019-06-20T03:50:06.015Z,18.91
2019-06-20T03:51:05.809Z,19.04
2019-06-20T03:52:05.706Z,18.73
2019-06-20T03:53:05.721Z,18.57
2019-06-20T03:54:05.686Z,18.40
2019-06-20T03:55:05.716Z,18.46
2019-06-20T03:56:05.753Z,18.54
2019-06-20T03:57:05.713Z,18.57
2019-06-20T03:58:05.741Z,18.62
2019-06-20T03:59:05.756Z,18.52
2019-06-20T04:00:05.810Z,18.53
2019-06-20T04:01:05.839Z,18.52
2019-06-20T04:02:05.785Z,18.42
2019-06-20T04:03:05.746Z,18.42
2019-06-20T04:04:05.764Z,18.50
2019-06-20T04:05:05.801Z,18.42
2019-06-20T04:06:05.881Z,18.55
2019-06-20T04:07:05.992Z,18.53
2019-06-20T04:08:05.885Z,18.67
2019-06-20T04:09:05.716Z,18.52
2019-06-20T04:10:05.752Z,18.55
2019-06-20T04:11:05.716Z,18.57
2019-06-20T04:12:06.079Z,18.56
2019-06-20T04:13:06.127Z,18.57
2019-06-20T04:14:05.759Z,18.58
2019-06-20T04:15:18.673Z,18.73
2019-06-20T04:16:05.793Z,18.87
2019-06-20T04:17:05.834Z,19.03
2019-06-20T04:18:06.867Z,19.02
2019-06-20T04:19:05.803Z,18.80
2019-06-20T04:20:05.837Z,18.70
2019-06-20T04:21:05.816Z,18.65
2019-06-20T04:22:05.828Z,18.68
2019-06-20T04:23:05.875Z,18.60
2019-06-20T04:24:05.789Z,18.57
2019-06-20T04:25:05.762Z,18.62
2019-06-20T04:26:05.794Z,18.79
2019-06-20T04:27:05.731Z,19.06
2019-06-20T04:28:05.741Z,19.29
2019-06-20T04:29:05.842Z,19.26
2019-06-20T04:30:05.823Z,19.20
2019-06-20T04:31:05.842Z,18.96
2019-06-20T04:32:05.829Z,19.09
2019-06-20T04:33:05.883Z,19.00
2019-06-20T04:34:05.865Z,19.17
2019-06-20T04:35:05.819Z,18.98
2019-06-20T04:36:05.830Z,18.93
2019-06-20T04:37:05.862Z,18.88
2019-06-20T04:38:05.838Z,18.91
2019-06-20T04:39:18.621Z,18.95
2019-06-20T04:40:05.886Z,18.93
2019-06-20T04:41:05.880Z,19.08
2019-06-20T04:42:05.846Z,19.31
2019-06-20T04:43:05.796Z,19.24
2019-06-20T04:44:05.896Z,19.14
2019-06-20T04:45:06.130Z,19.23
2019-06-20T04:46:05.804Z,19.40
2019-06-20T04:47:05.838Z,19.48
2019-06-20T04:48:05.805Z,19.57
2019-06-20T04:49:05.926Z,19.82
2019-06-20T04:50:05.900Z,19.95
2019-06-20T04:51:05.821Z,19.86
2019-06-20T04:52:05.847Z,19.94
2019-06-20T04:53:05.866Z,19.86
2019-06-20T04:54:05.955Z,19.73
2019-06-20T04:55:05.879Z,19.73
2019-06-20T04:56:06.123Z,19.53
2019-06-20T04:57:05.895Z,19.59
2019-06-20T04:58:05.902Z,19.70
2019-06-20T04:59:06.962Z,19.79
2019-06-20T05:00:05.891Z,19.75
2019-06-20T05:01:05.871Z,19.79
2019-06-20T05:02:05.900Z,19.66
2019-06-20T05:03:05.870Z,19.43
2019-06-20T05:04:05.909Z,19.55
2019-06-20T05:05:05.891Z,19.55
2019-06-20T05:06:05.888Z,19.37
2019-06-20T05:07:06.103Z,19.47
2019-06-20T05:08:05.850Z,19.62
2019-06-20T05:09:05.935Z,19.46
2019-06-20T05:10:05.938Z,19.68
2019-06-20T05:11:05.881Z,19.88
2019-06-20T05:12:05.889Z,19.63
2019-06-20T05:13:05.935Z,19.81
2019-06-20T05:14:06.104Z,20.05
2019-06-20T05:15:05.926Z,19.95
2019-06-20T05:16:05.889Z,19.98
2019-06-20T05:17:07.223Z,19.94
2019-06-20T05:18:07.054Z,19.97
2019-06-20T05:19:05.869Z,19.53
2019-06-20T05:20:05.867Z,19.46
2019-06-20T05:21:05.885Z,19.32
2019-06-20T05:22:06.037Z,19.52
2019-06-20T05:23:05.904Z,19.81
2019-06-20T05:24:05.878Z,20.35
2019-06-20T05:25:05.900Z,20.91
2019-06-20T05:26:05.959Z,21.19
2019-06-20T05:27:05.907Z,21.13
2019-06-20T05:28:05.893Z,21.17
2019-06-20T05:29:06.047Z,21.32
2019-06-20T05:30:05.950Z,21.51
2019-06-20T05:31:05.975Z,21.45
2019-06-20T05:32:05.892Z,21.03
2019-06-20T05:33:05.932Z,21.19
2019-06-20T05:34:05.924Z,21.15
2019-06-20T05:35:05.917Z,21.72
2019-06-20T05:36:06.161Z,21.38
2019-06-20T05:37:05.984Z,21.18
2019-06-20T05:38:05.950Z,20.51
2019-06-20T05:39:05.945Z,20.94
2019-06-20T05:40:06.234Z,21.30
2019-06-20T05:41:06.004Z,21.15
2019-06-20T05:42:06.047Z,20.98
2019-06-20T05:43:06.104Z,21.18
2019-06-20T05:44:06.040Z,21.21
2019-06-20T05:45:06.116Z,21.44
2019-06-20T05:46:10.811Z,21.84
2019-06-20T05:47:12.437Z,21.59
2019-06-20T05:48:06.174Z,21.57
2019-06-20T05:49:06.280Z,21.53
2019-06-20T05:50:06.091Z,21.18
2019-06-20T05:51:07.630Z,21.25
2019-06-20T05:52:06.195Z,21.26
2019-06-20T05:53:06.197Z,21.40
2019-06-20T05:54:09.485Z,21.53
2019-06-20T05:55:06.280Z,21.27
2019-06-20T05:56:06.211Z,20.99
2019-06-20T05:57:08.439Z,20.68
2019-06-20T05:58:06.197Z,20.62
2019-06-20T05:59:06.247Z,20.74
2019-06-20T06:00:06.224Z,20.80
2019-06-20T06:01:06.147Z,20.84
2019-06-20T06:02:06.488Z,20.88
2019-06-20T06:03:07.232Z,20.85
2019-06-20T06:04:10.509Z,20.63
2019-06-20T06:05:06.259Z,20.43
2019-06-20T06:06:06.199Z,20.45
2019-06-20T06:07:06.150Z,20.52
2019-06-20T06:08:06.447Z,20.52
2019-06-20T06:09:06.165Z,20.47
2019-06-20T06:10:06.176Z,20.46
2019-06-20T06:11:06.271Z,20.51
2019-06-20T06:12:06.269Z,20.48
2019-06-20T06:13:06.204Z,20.50
2019-06-20T06:14:06.207Z,20.44
2019-06-20T06:15:06.459Z,20.44
2019-06-20T06:16:06.378Z,20.45
2019-06-20T06:17:06.120Z,20.66
2019-06-20T06:18:06.150Z,20.79
2019-06-20T06:19:06.293Z,20.85
2019-06-20T06:20:06.164Z,20.85
2019-06-20T06:21:06.347Z,20.76
2019-06-20T06:22:06.394Z,20.93
2019-06-20T06:23:06.288Z,21.17
2019-06-20T06:24:06.264Z,21.03
2019-06-20T06:25:06.456Z,21.04
2019-06-20T06:26:07.431Z,21.34
2019-06-20T06:27:06.318Z,21.36
2019-06-20T06:28:06.342Z,21.61
2019-06-20T06:29:06.322Z,21.51
2019-06-20T06:30:06.231Z,21.62
2019-06-20T06:31:06.481Z,21.24
2019-06-20T06:32:06.254Z,20.77
2019-06-20T06:33:06.368Z,20.87
2019-06-20T06:34:06.470Z,21.04
2019-06-20T06:35:06.371Z,20.66
2019-06-20T06:36:06.340Z,21.15
2019-06-20T06:37:06.595Z,21.34
2019-06-20T06:38:06.287Z,21.86
2019-06-20T06:39:06.539Z,22.17
2019-06-20T06:40:06.311Z,22.27
2019-06-20T06:41:06.471Z,22.83
2019-06-20T06:42:06.424Z,23.41
2019-06-20T06:43:06.424Z,23.35
2019-06-20T06:44:08.443Z,23.24
2019-06-20T06:45:06.655Z,22.80
2019-06-20T06:46:06.630Z,22.60
2019-06-20T06:47:08.587Z,21.92
2019-06-20T06:48:06.436Z,21.22
2019-06-20T06:49:06.703Z,20.04
2019-06-20T06:50:06.514Z,20.33
2019-06-20T06:51:06.563Z,20.06
2019-06-20T06:52:06.631Z,20.37
2019-06-20T06:53:06.578Z,20.08
2019-06-20T06:54:06.456Z,20.36
2019-06-20T06:55:06.568Z,20.32
2019-06-20T06:56:06.720Z,20.38
2019-06-20T06:57:06.588Z,20.32
2019-06-20T06:58:06.479Z,19.99
2019-06-20T06:59:06.564Z,20.01
2019-06-20T07:00:06.556Z,20.22
2019-06-20T07:01:10.128Z,20.37
2019-06-20T07:02:09.267Z,20.18
2019-06-20T07:03:06.727Z,20.05
2019-06-20T07:04:06.703Z,20.06
2019-06-20T07:05:06.498Z,20.16
2019-06-20T07:06:06.572Z,20.63
2019-06-20T07:07:06.729Z,20.94
2019-06-20T07:08:06.431Z,20.69
2019-06-20T07:09:06.607Z,20.73
2019-06-20T07:10:07.881Z,20.58
2019-06-20T07:11:06.570Z,20.13
2019-06-20T07:12:06.570Z,19.95
2019-06-20T07:13:06.491Z,20.23
2019-06-20T07:14:06.578Z,20.07
2019-06-20T07:15:06.480Z,20.05
2019-06-20T07:16:06.653Z,20.37
2019-06-20T07:17:06.761Z,20.36
2019-06-20T07:18:06.715Z,20.41
2019-06-20T07:19:06.782Z,20.12
2019-06-20T07:20:06.618Z,20.13
2019-06-20T07:21:06.594Z,20.27
2019-06-20T07:22:06.563Z,20.49
2019-06-20T07:23:06.455Z,20.50
2019-06-20T07:24:06.886Z,20.59
2019-06-20T07:25:06.563Z,20.66
2019-06-20T07:26:06.649Z,20.80
2019-06-20T07:27:06.574Z,20.68
2019-06-20T07:28:06.504Z,19.93
2019-06-20T07:29:06.705Z,19.97
2019-06-20T07:30:06.662Z,20.09
2019-06-20T07:31:06.769Z,19.99
2019-06-20T07:32:06.769Z,20.01
2019-06-20T07:33:06.589Z,19.85
2019-06-20T07:34:06.911Z,20.10
2019-06-20T07:35:06.672Z,20.03
2019-06-20T07:36:06.640Z,20.32
2019-06-20T07:37:06.583Z,19.88
2019-06-20T07:38:06.694Z,19.77
2019-06-20T07:39:06.590Z,19.67
2019-06-20T07:40:06.676Z,19.39
2019-06-20T07:41:06.626Z,19.40
2019-06-20T07:42:06.502Z,19.47
2019-06-20T07:43:06.605Z,19.53
2019-06-20T07:44:06.622Z,19.47
2019-06-20T07:45:06.604Z,19.52
2019-06-20T07:46:06.554Z,19.63
2019-06-20T07:47:17.019Z,19.57
2019-06-20T07:48:06.635Z,19.80
2019-06-20T07:49:06.821Z,19.65
2019-06-20T07:50:06.673Z,20.02
2019-06-20T07:51:06.725Z,20.24
2019-06-20T07:52:06.572Z,20.47
2019-06-20T07:53:06.583Z,20.55
2019-06-20T07:54:06.590Z,20.38
2019-06-20T07:55:06.496Z,19.77
2019-06-20T07:56:09.370Z,19.51
2019-06-20T07:57:06.590Z,19.51
2019-06-20T07:58:06.772Z,19.36
2019-06-20T07:59:06.610Z,19.10
2019-06-20T08:00:06.723Z,19.00
2019-06-20T08:01:06.582Z,19.43
2019-06-20T08:02:06.777Z,19.45
2019-06-20T08:03:06.690Z,19.32
2019-06-20T08:04:06.799Z,19.52
2019-06-20T08:05:06.654Z,19.54
2019-06-20T08:06:06.877Z,19.72
2019-06-20T08:07:06.577Z,19.45
2019-06-20T08:08:06.691Z,19.37
2019-06-20T08:09:06.860Z,19.25
2019-06-20T08:10:06.681Z,19.22
2019-06-20T08:11:06.528Z,19.61
2019-06-20T08:12:06.612Z,19.98
2019-06-20T08:13:06.600Z,19.79
2019-06-20T08:14:06.766Z,19.64
2019-06-20T08:15:14.849Z,20.01
2019-06-20T08:16:06.698Z,19.86
2019-06-20T08:17:06.636Z,19.57
2019-06-20T08:18:06.750Z,19.75
2019-06-20T08:19:06.845Z,20.00
2019-06-20T08:20:06.677Z,19.82
2019-06-20T08:21:06.781Z,19.53
2019-06-20T08:22:06.697Z,19.22
2019-06-20T08:23:06.703Z,19.73
2019-06-20T08:24:06.854Z,19.56
2019-06-20T08:25:06.782Z,19.54
2019-06-20T08:26:06.970Z,19.52
2019-06-20T08:27:06.808Z,19.76
2019-06-20T08:28:07.034Z,19.84
2019-06-20T08:29:18.634Z,20.05
2019-06-20T08:30:07.298Z,20.79
2019-06-20T08:31:06.909Z,20.78
2019-06-20T08:32:06.796Z,20.81
2019-06-20T08:33:11.711Z,20.83
2019-06-20T08:34:06.654Z,20.82
2019-06-20T08:35:06.807Z,20.26
2019-06-20T08:36:06.970Z,19.93
2019-06-20T08:37:06.804Z,19.88
2019-06-20T08:38:07.580Z,19.94
2019-06-20T08:39:06.598Z,19.89
2019-06-20T08:40:06.623Z,19.79
2019-06-20T08:41:06.735Z,20.27
2019-06-20T08:42:14.177Z,19.86
2019-06-20T08:43:06.657Z,19.88
2019-06-20T08:44:06.714Z,19.61
2019-06-20T08:45:06.796Z,19.49
2019-06-20T08:46:10.183Z,19.54
2019-06-20T08:47:06.829Z,19.59
2019-06-20T08:48:07.481Z,19.61
2019-06-20T08:49:06.726Z,19.11
2019-06-20T08:50:06.693Z,19.46
2019-06-20T08:51:06.761Z,19.19
2019-06-20T08:52:06.902Z,19.10
2019-06-20T08:53:06.896Z,19.02
2019-06-20T08:54:06.779Z,19.25
2019-06-20T08:55:06.814Z,19.23
2019-06-20T08:56:06.777Z,19.05
2019-06-20T08:57:07.880Z,19.01
2019-06-20T08:58:06.674Z,18.87
2019-06-20T08:59:23.988Z,18.78
2019-06-20T09:15:47.796Z,17.53
2019-06-20T09:16:44.362Z,17.55
2019-06-20T09:17:44.637Z,17.61
2019-06-20T09:18:44.891Z,17.61
2019-06-20T09:19:44.604Z,17.61
2019-06-20T09:20:44.534Z,17.40
2019-06-20T09:21:44.585Z,17.44
2019-06-20T09:22:44.558Z,17.41
2019-06-20T09:23:44.709Z,17.60
2019-06-20T09:24:44.466Z,17.81
2019-06-20T09:25:44.772Z,17.65
2019-06-20T09:26:44.538Z,17.65
2019-06-20T09:27:44.633Z,17.61
2019-06-20T09:28:44.488Z,17.71
2019-06-20T09:29:44.651Z,17.87
2019-06-20T09:30:44.500Z,17.84
2019-06-20T09:31:44.648Z,18.07
2019-06-20T09:32:44.613Z,18.05
2019-06-20T09:33:44.728Z,18.18
2019-06-20T09:34:44.555Z,18.18
2019-06-20T09:35:44.658Z,18.02
2019-06-20T09:36:44.788Z,18.24
2019-06-20T09:37:44.612Z,18.29
2019-06-20T09:38:44.571Z,18.32
2019-06-20T09:39:44.568Z,18.41
2019-06-20T09:40:44.603Z,18.16
2019-06-20T09:41:44.525Z,18.13
2019-06-20T09:42:44.697Z,18.12
2019-06-20T09:43:44.477Z,18.23
2019-06-20T09:44:44.607Z,18.27
2019-06-20T09:45:44.611Z,18.23
2019-06-20T09:46:44.862Z,18.20
2019-06-20T09:47:44.773Z,18.22
2019-06-20T09:48:44.821Z,18.22
2019-06-20T09:49:44.701Z,18.10
2019-06-20T09:50:44.678Z,18.07
2019-06-20T09:51:44.719Z,17.94
2019-06-20T09:52:44.579Z,17.95
2019-06-20T09:53:44.670Z,17.89
2019-06-20T09:54:44.513Z,17.80
2019-06-20T09:55:44.762Z,17.89
2019-06-20T09:56:47.240Z,18.01
2019-06-20T09:57:44.762Z,18.04
2019-06-20T09:58:44.714Z,18.03
2019-06-20T09:59:59.107Z,18.20
2019-06-20T10:00:44.522Z,18.40
2019-06-20T10:01:47.592Z,18.16
2019-06-20T10:02:44.527Z,18.11
2019-06-20T10:03:46.476Z,18.28
2019-06-20T10:04:46.100Z,18.39
2019-06-20T10:05:45.995Z,18.39
2019-06-20T10:06:45.715Z,18.53
2019-06-20T10:07:45.545Z,18.58
2019-06-20T10:08:46.608Z,18.95
2019-06-20T10:09:46.659Z,18.82
2019-06-20T10:10:45.460Z,18.88
2019-06-20T10:11:45.278Z,18.71
2019-06-20T10:12:45.224Z,18.96
2019-06-20T10:13:45.048Z,19.18
2019-06-20T10:14:45.443Z,19.48
2019-06-20T10:15:44.944Z,19.69
2019-06-20T10:16:47.469Z,19.77
2019-06-20T10:17:45.724Z,19.88
2019-06-20T10:18:46.776Z,19.92
2019-06-20T10:19:46.719Z,19.65
2019-06-20T10:20:45.839Z,19.78
2019-06-20T10:21:46.241Z,19.97
2019-06-20T10:22:45.867Z,20.04
2019-06-20T10:23:46.052Z,19.85
2019-06-20T10:24:45.784Z,19.81
2019-06-20T10:25:46.107Z,19.90
2019-06-20T10:26:45.093Z,20.11
2019-06-20T10:27:46.272Z,20.00
2019-06-20T10:28:44.596Z,19.80
2019-06-20T10:29:45.842Z,19.85
2019-06-20T10:30:44.834Z,19.96
2019-06-20T10:31:46.245Z,19.91
2019-06-20T10:32:45.623Z,19.83
2019-06-20T10:33:45.768Z,19.99
2019-06-20T10:34:45.652Z,20.01
2019-06-20T10:35:45.852Z,20.11
2019-06-20T10:36:45.295Z,20.23
2019-06-20T10:37:45.260Z,20.31
2019-06-20T10:38:45.255Z,20.33
2019-06-20T10:39:46.059Z,20.38
2019-06-20T10:40:45.255Z,20.39
2019-06-20T10:41:46.430Z,20.52
2019-06-20T10:42:46.042Z,20.59
2019-06-20T10:43:45.716Z,20.58
2019-06-20T10:44:45.700Z,20.40
2019-06-20T10:45:45.829Z,20.29
2019-06-20T10:46:45.829Z,20.18
2019-06-20T10:47:45.487Z,20.19
2019-06-20T10:48:45.861Z,20.33
2019-06-20T10:49:46.181Z,20.39
2019-06-20T10:50:45.624Z,20.41
2019-06-20T10:51:47.495Z,20.15
2019-06-20T10:52:45.255Z,19.80
2019-06-20T10:53:45.651Z,19.69
2019-06-20T10:54:44.914Z,19.53
2019-06-20T10:55:44.957Z,19.42
2019-06-20T10:56:45.838Z,19.46
2019-06-20T10:57:44.697Z,19.47
2019-06-20T10:58:44.654Z,19.40
2019-06-20T10:59:44.667Z,19.50
2019-06-20T11:00:46.069Z,19.59
2019-06-20T11:01:44.676Z,19.65
2019-06-20T11:02:44.983Z,19.63
2019-06-20T11:03:46.016Z,19.54
2019-06-20T11:04:45.669Z,19.61
2019-06-20T11:05:45.558Z,19.75
2019-06-20T11:06:49.655Z,19.63
2019-06-20T11:07:45.628Z,19.69
2019-06-20T11:08:45.636Z,19.84
2019-06-20T11:09:45.207Z,19.76
2019-06-20T11:10:45.106Z,19.82
2019-06-20T11:11:44.839Z,19.80
2019-06-20T11:12:52.185Z,19.76
2019-06-20T11:13:44.715Z,19.65
2019-06-20T11:14:44.615Z,19.50
2019-06-20T11:15:46.207Z,19.47
2019-06-20T11:16:45.234Z,19.39
2019-06-20T11:17:46.274Z,19.21
2019-06-20T11:18:44.762Z,19.25
2019-06-20T11:19:45.805Z,19.37
2019-06-20T11:20:44.699Z,19.20
2019-06-20T11:21:45.714Z,19.20
2019-06-20T11:22:45.390Z,19.24
2019-06-20T11:23:45.257Z,19.17
2019-06-20T11:24:45.349Z,19.30
2019-06-20T11:25:44.679Z,19.24
2019-06-20T11:26:46.035Z,19.20
2019-06-20T11:27:44.885Z,19.16
2019-06-20T11:28:44.855Z,19.20
2019-06-20T11:29:46.483Z,19.07
2019-06-20T11:30:53.041Z,18.96
2019-06-20T11:31:47.577Z,18.99
2019-06-20T11:32:45.781Z,19.03
2019-06-20T11:33:44.757Z,18.84
2019-06-20T11:34:44.957Z,18.90
2019-06-20T11:35:44.806Z,19.03
2019-06-20T11:36:45.120Z,19.07
2019-06-20T11:37:45.228Z,19.09
2019-06-20T11:38:44.883Z,19.05
2019-06-20T11:39:44.788Z,19.13
2019-06-20T11:40:45.019Z,19.07
2019-06-20T11:41:44.689Z,19.16
2019-06-20T11:42:45.179Z,19.27
2019-06-20T11:43:44.730Z,19.36
2019-06-20T11:44:44.896Z,19.50
2019-06-20T11:45:44.911Z,19.57
2019-06-20T11:46:44.774Z,19.61
2019-06-20T11:47:44.861Z,19.50
2019-06-20T11:48:47.113Z,19.47
2019-06-20T11:49:44.800Z,19.52
2019-06-20T11:50:44.884Z,19.57
2019-06-20T11:51:44.923Z,19.53
2019-06-20T11:52:45.882Z,19.52
2019-06-20T11:53:44.902Z,19.53
2019-06-20T11:54:45.028Z,19.50
2019-06-20T11:55:44.814Z,19.53
2019-06-20T11:56:44.818Z,19.78
2019-06-20T11:57:44.867Z,19.76
2019-06-20T11:58:45.885Z,19.66
2019-06-20T11:59:44.929Z,19.49
2019-06-20T12:01:02.252Z,19.72
2019-06-20T12:01:44.945Z,19.87
2019-06-20T12:02:46.129Z,19.87
2019-06-20T12:03:44.898Z,19.87
2019-06-20T12:04:44.965Z,19.87
2019-06-20T12:05:44.870Z,20.06
2019-06-20T12:06:45.013Z,20.21
2019-06-20T12:07:47.504Z,20.23
2019-06-20T12:08:45.209Z,20.34
2019-06-20T12:09:44.842Z,20.31
2019-06-20T12:10:45.351Z,20.32
2019-06-20T12:11:44.832Z,20.30
2019-06-20T12:12:44.916Z,20.17
2019-06-20T12:13:46.412Z,20.17
2019-06-20T12:14:46.446Z,20.31
2019-06-20T12:15:44.771Z,20.36
2019-06-20T12:16:44.887Z,20.11
2019-06-20T12:17:45.334Z,20.34
2019-06-20T12:18:45.225Z,20.47
2019-06-20T12:19:44.894Z,20.47
2019-06-20T12:20:44.788Z,20.64
2019-06-20T12:21:45.033Z,20.83
2019-06-20T12:22:45.051Z,20.93
2019-06-20T12:23:45.011Z,20.87
2019-06-20T12:24:44.999Z,21.03
2019-06-20T12:25:44.987Z,21.09
2019-06-20T12:26:44.947Z,20.93
2019-06-20T12:27:45.477Z,20.90
2019-06-20T12:28:44.924Z,20.98
2019-06-20T12:29:46.424Z,20.94
2019-06-20T12:30:45.579Z,20.99
2019-06-20T12:31:45.824Z,20.99
2019-06-20T12:32:46.706Z,20.90
2019-06-20T12:33:45.111Z,21.05
2019-06-20T12:34:44.955Z,21.38
2019-06-20T12:35:44.996Z,21.86
2019-06-20T12:36:44.890Z,22.04
2019-06-20T12:37:45.294Z,22.04
2019-06-20T12:38:46.156Z,22.66
2019-06-20T12:39:44.867Z,22.89
2019-06-20T12:40:46.169Z,23.36
2019-06-20T12:41:45.569Z,23.93
2019-06-20T12:42:44.993Z,24.61
2019-06-20T12:43:46.286Z,24.64
2019-06-20T12:44:45.961Z,24.49
2019-06-20T12:45:44.902Z,24.18
2019-06-20T12:46:45.266Z,24.33
2019-06-20T12:47:46.099Z,24.89
2019-06-20T12:48:45.092Z,24.59
2019-06-20T12:49:45.870Z,23.88
2019-06-20T12:50:45.125Z,23.83
2019-06-20T12:51:44.836Z,23.32
2019-06-20T12:52:45.737Z,23.17
2019-06-20T12:53:46.307Z,23.13
2019-06-20T12:54:45.079Z,23.02
2019-06-20T12:55:45.772Z,22.68
2019-06-20T12:56:46.263Z,22.41
2019-06-20T12:57:46.154Z,22.45
2019-06-20T12:58:46.584Z,22.69
2019-06-20T12:59:46.325Z,22.11
2019-06-20T13:00:46.431Z,21.96
2019-06-20T13:01:47.740Z,21.78
2019-06-20T13:02:45.532Z,22.14
2019-06-20T13:03:46.378Z,23.11
2019-06-20T13:04:46.052Z,23.33
2019-06-20T13:05:45.179Z,23.23
2019-06-20T13:06:45.095Z,23.58
2019-06-20T13:07:46.219Z,24.11